createdAt,value
2022-11-05T00:01:12.485Z,10.20
2022-11-05T00:06:53.802Z,11.43
2022-11-05T00:12:38.686Z,8.50
2022-11-05T00:18:02.287Z,9.93
2022-11-05T00:23:43.331Z,15.32
2022-11-05T00:29:08.292Z,8.13
2022-11-05T00:34:31.966Z,9.13
2022-11-05T00:39:55.671Z,11.43
2022-11-05T00:45:20.717Z,8.80
2022-11-05T00:50:44.376Z,9.35
2022-11-05T00:56:08.435Z,12.23
2022-11-05T01:01:33.653Z,10.00
2022-11-05T01:06:57.400Z,10.57
2022-11-05T01:12:21.038Z,8.38
2022-11-05T01:17:46.071Z,8.52
2022-11-05T01:23:13.561Z,10.23
2022-11-05T01:28:37.751Z,9.63
2022-11-05T01:34:02.815Z,13.88
2022-11-05T01:39:26.475Z,11.32
2022-11-05T01:45:03.201Z,10.35
2022-11-05T01:50:35.544Z,9.68
2022-11-05T01:56:04.048Z,14.48
2022-11-05T02:01:38.171Z,24.88
2022-11-05T02:07:29.266Z,11.13
2022-11-05T02:12:53.040Z,14.27
2022-11-05T02:18:26.471Z,16.83
2022-11-05T02:24:31.674Z,15.38
2022-11-05T02:30:08.949Z,19.00
2022-11-05T02:36:07.711Z,19.83
2022-11-05T02:41:36.563Z,13.18
2022-11-05T02:47:06.833Z,20.77
2022-11-05T02:52:37.692Z,15.27
2022-11-05T02:58:03.858Z,17.60
2022-11-05T03:03:31.957Z,14.65
2022-11-05T03:09:13.497Z,15.85
2022-11-05T03:14:44.687Z,13.77
2022-11-05T03:20:16.833Z,19.70
2022-11-05T03:25:47.028Z,13.23
2022-11-05T03:31:14.735Z,11.05
2022-11-05T03:36:43.016Z,14.35
2022-11-05T03:42:11.953Z,12.15
2022-11-05T03:47:40.323Z,11.95
2022-11-05T03:53:10.857Z,7.55
2022-11-05T03:58:37.153Z,11.88
2022-11-05T04:04:00.761Z,14.55
2022-11-05T04:09:41.875Z,14.40
2022-11-05T04:15:08.341Z,16.00
2022-11-05T04:20:49.637Z,17.25
2022-11-05T04:26:13.209Z,20.42
2022-11-05T04:31:38.420Z,17.17
2022-11-05T04:37:02.043Z,17.27
2022-11-05T04:42:25.653Z,19.63
2022-11-05T04:47:50.701Z,20.13
2022-11-05T04:53:14.397Z,18.88
2022-11-05T04:58:40.574Z,16.25
2022-11-05T05:04:05.859Z,12.52
2022-11-05T05:09:29.420Z,11.55
2022-11-05T05:14:53.301Z,9.30
2022-11-05T05:20:35.746Z,9.80
2022-11-05T05:26:00.391Z,10.68
2022-11-05T05:31:24.345Z,10.32
2022-11-05T05:36:49.456Z,6.88
2022-11-05T05:42:13.176Z,15.00
2022-11-05T05:47:36.723Z,9.38
2022-11-05T05:53:01.691Z,9.57
2022-11-05T05:58:27.357Z,10.80
2022-11-05T06:03:50.980Z,9.05
2022-11-05T06:09:16.651Z,11.00
2022-11-05T06:14:40.267Z,7.93
2022-11-05T06:20:03.919Z,10.00
2022-11-05T06:25:28.909Z,6.95
2022-11-05T06:30:55.898Z,8.73
2022-11-05T06:36:20.588Z,4.85
2022-11-05T06:42:12.177Z,8.38
2022-11-05T06:47:29.568Z,7.78
2022-11-05T06:52:56.608Z,7.80
2022-11-05T06:58:21.826Z,8.70
2022-11-05T07:03:49.688Z,13.05
2022-11-05T07:09:13.299Z,8.50
2022-11-05T07:14:38.595Z,11.32
2022-11-05T07:20:02.172Z,6.97
2022-11-05T07:25:25.786Z,5.88
2022-11-05T07:30:50.794Z,4.15
2022-11-05T07:36:14.892Z,3.70
2022-11-05T07:41:38.475Z,3.78
2022-11-05T07:47:03.666Z,4.50
2022-11-05T07:52:27.349Z,3.22
2022-11-05T07:57:52.124Z,5.70
2022-11-05T08:03:19.825Z,6.22
2022-11-05T08:08:43.939Z,5.03
2022-11-05T08:14:07.761Z,4.20
2022-11-05T08:19:32.760Z,5.13
2022-11-05T08:24:56.362Z,4.07
2022-11-05T08:30:20.072Z,4.15
2022-11-05T08:35:45.383Z,5.53
2022-11-05T08:41:08.966Z,3.47
2022-11-05T08:46:35.385Z,3.13
2022-11-05T08:52:02.673Z,3.47
2022-11-05T08:57:27.274Z,4.13
2022-11-05T09:02:50.941Z,3.22
2022-11-05T09:08:17.309Z,5.80
2022-11-05T09:13:40.929Z,3.30
2022-11-05T09:19:04.969Z,4.70
2022-11-05T09:24:29.981Z,4.25
2022-11-05T09:29:53.663Z,3.47
2022-11-05T09:35:17.471Z,4.03
2022-11-05T09:40:45.743Z,4.15
2022-11-05T09:46:16.086Z,4.40
2022-11-05T09:51:41.160Z,6.00
2022-11-05T09:57:09.072Z,4.82
2022-11-05T10:02:35.669Z,4.85
2022-11-05T10:08:03.385Z,4.25
2022-11-05T10:13:34.515Z,4.90
2022-11-05T10:19:02.480Z,3.45
2022-11-05T10:24:26.101Z,4.82
2022-11-05T10:29:51.560Z,4.25
2022-11-05T10:35:22.513Z,4.65
2022-11-05T10:40:58.635Z,5.60
2022-11-05T10:46:32.500Z,5.03
2022-11-05T10:51:59.199Z,4.70
2022-11-05T10:57:32.222Z,4.57
2022-11-05T11:02:59.940Z,5.55
2022-11-05T11:08:26.030Z,4.40
2022-11-05T11:13:52.377Z,6.70
2022-11-05T11:19:28.672Z,4.03
2022-11-05T11:24:54.070Z,3.95
2022-11-05T11:30:19.956Z,7.63
2022-11-05T11:35:47.770Z,4.72
2022-11-05T11:41:25.186Z,3.17
2022-11-05T11:46:51.223Z,4.13
2022-11-05T11:52:18.682Z,4.18
2022-11-05T11:57:45.436Z,3.97
2022-11-05T12:03:24.651Z,3.97
2022-11-05T12:09:02.037Z,3.80
2022-11-05T12:14:46.096Z,4.85
2022-11-05T12:20:24.535Z,3.70
2022-11-05T12:25:56.414Z,3.40
2022-11-05T12:31:28.035Z,3.97
2022-11-05T12:37:09.826Z,3.17
2022-11-05T12:42:46.118Z,3.00
2022-11-05T12:48:28.310Z,2.50
2022-11-05T12:54:04.275Z,4.10
2022-11-05T12:59:36.666Z,3.55
2022-11-05T13:05:04.035Z,3.70
2022-11-05T13:10:33.162Z,3.80
2022-11-05T13:16:03.499Z,5.00
2022-11-05T13:21:29.646Z,2.57
2022-11-05T13:26:57.067Z,3.90
2022-11-05T13:32:29.314Z,2.75
2022-11-05T13:38:10.286Z,1.63
2022-11-05T13:43:54.335Z,2.78
2022-11-05T13:49:47.585Z,2.38
2022-11-05T13:55:32.260Z,2.38
2022-11-05T14:01:07.194Z,2.60
2022-11-05T14:06:36.527Z,2.67
2022-11-05T14:12:00.330Z,3.30
2022-11-05T14:17:35.051Z,3.05
2022-11-05T14:23:37.466Z,2.92
2022-11-05T14:29:24.422Z,3.75
2022-11-05T14:34:50.461Z,3.90
2022-11-05T14:40:36.289Z,3.08
2022-11-05T14:46:01.700Z,2.90
2022-11-05T14:51:29.678Z,2.47
2022-11-05T14:56:57.255Z,3.47
2022-11-05T15:02:24.377Z,11.30
2022-11-05T15:07:57.516Z,3.03
2022-11-05T15:13:29.733Z,3.15
2022-11-05T15:18:55.539Z,2.50
2022-11-05T15:24:21.349Z,2.72
2022-11-05T15:29:49.772Z,3.10
2022-11-05T15:35:23.421Z,2.63
2022-11-05T15:40:47.150Z,5.10
2022-11-05T15:46:18.468Z,3.03
2022-11-05T15:57:06.112Z,3.85
2022-11-05T16:02:34.068Z,3.15
2022-11-05T16:08:00.075Z,5.80
2022-11-05T16:13:34.677Z,2.25
2022-11-05T16:18:59.869Z,2.17
2022-11-05T16:24:29.157Z,2.30
2022-11-05T16:29:55.544Z,3.10
2022-11-05T16:35:23.077Z,2.75
2022-11-05T16:40:46.787Z,3.00
2022-11-05T16:46:15.470Z,2.90
2022-11-05T16:51:40.713Z,5.78
2022-11-05T16:57:06.738Z,3.63
2022-11-05T17:02:30.530Z,4.80
2022-11-05T17:07:56.391Z,3.03
2022-11-05T17:13:20.850Z,3.83
2022-11-05T17:18:45.148Z,3.92
2022-11-05T17:24:10.469Z,4.47
2022-11-05T17:29:34.454Z,4.60
2022-11-05T17:34:58.069Z,7.28
2022-11-05T17:40:24.521Z,6.00
2022-11-05T17:45:50.092Z,4.40
2022-11-05T17:51:16.115Z,5.03
2022-11-05T17:56:44.687Z,8.02
2022-11-05T18:02:11.235Z,4.53
2022-11-05T18:07:34.923Z,3.53
2022-11-05T18:13:00.209Z,4.93
2022-11-05T18:18:24.098Z,3.55
2022-11-05T18:23:47.930Z,3.72
2022-11-05T18:29:13.009Z,9.95
2022-11-05T18:34:37.073Z,5.10
2022-11-05T18:40:00.693Z,4.97
2022-11-05T18:45:29.741Z,3.10
2022-11-05T18:50:57.698Z,3.75
2022-11-05T18:56:24.974Z,3.93
2022-11-05T19:01:50.201Z,3.28
2022-11-05T19:07:13.814Z,3.78
2022-11-05T19:12:37.438Z,4.50
2022-11-05T19:18:02.443Z,5.15
2022-11-05T19:23:26.109Z,5.00
2022-11-05T19:28:50.173Z,4.63
2022-11-05T19:34:15.208Z,4.28
2022-11-05T19:39:40.052Z,5.55
2022-11-05T19:50:49.070Z,8.35
2022-11-05T19:56:14.707Z,6.03
2022-11-05T20:01:39.477Z,6.70
2022-11-05T20:07:04.677Z,7.22
2022-11-05T20:12:28.490Z,7.78
2022-11-05T20:17:53.528Z,5.43
2022-11-05T20:23:18.589Z,5.35
2022-11-05T20:28:43.846Z,6.43
2022-11-05T20:34:07.618Z,5.72
2022-11-05T20:39:37.303Z,7.15
2022-11-05T20:45:11.895Z,4.95
2022-11-05T20:50:35.548Z,5.38
2022-11-05T20:56:06.586Z,6.10
2022-11-05T21:01:33.196Z,4.25
2022-11-05T21:06:56.969Z,4.68
2022-11-05T21:12:23.130Z,4.78
2022-11-05T21:17:47.054Z,7.78
2022-11-05T21:23:11.553Z,4.70
2022-11-05T21:28:39.403Z,6.03
2022-11-05T21:34:03.299Z,6.47
2022-11-05T21:39:27.748Z,7.03
2022-11-05T21:44:57.684Z,8.35
2022-11-05T21:50:44.263Z,5.55
2022-11-05T21:56:40.062Z,7.30
2022-11-05T22:02:16.285Z,18.48
2022-11-05T22:07:40.789Z,7.85
2022-11-05T22:13:04.412Z,10.57
2022-11-05T22:18:29.486Z,5.13
2022-11-05T22:23:53.332Z,6.40
2022-11-05T22:29:17.648Z,7.80
2022-11-05T22:34:42.681Z,5.00
2022-11-05T22:40:07.528Z,6.28
2022-11-05T22:45:31.161Z,6.95
2022-11-05T22:50:56.170Z,6.45
2022-11-05T22:56:22.078Z,8.23
2022-11-05T23:01:46.800Z,8.27
2022-11-05T23:07:30.245Z,7.55
2022-11-05T23:12:56.373Z,9.55
2022-11-05T23:18:37.558Z,8.18
2022-11-05T23:24:05.273Z,7.43
2022-11-05T23:29:29.003Z,8.63
2022-11-05T23:34:53.151Z,8.25
2022-11-05T23:40:24.012Z,8.23
2022-11-05T23:46:05.237Z,8.93
2022-11-05T23:51:28.898Z,9.00
2022-11-05T23:56:54.561Z,8.55
